Hub


Voltar

 INFORMAÇÕES METEOROLÓGICAS

METAR FOR SBLE


ADDS - METARS form results

(1257 UTC 26 April 2019)
Data provider http://aviationweather.gov/metar/data/
 
METAR text: SBLE 261200Z 08004KT 9999 BKN020 23/22 Q1019
Conditions at: SBLE (LENCOIS CHAPADA , BR) observed 1200 UTC 26 April 2019
Temperature: 23.0°C (73°F)
Dewpoint: 22.0°C (72°F) [RH = 94%]
Pressure (altimeter): 30.09 inches Hg (1019.0 mb)
Winds: from the E (80 degrees) at 5 MPH (4 knots; 2.1 m/s)
Visibility: 6 or more miles (10+ km)
Ceiling: 2000 feet AGL
Clouds: broken clouds at 2000 feet AGL
Weather: no significant weather observed at this time


 MAPA DO AEROPORTO


 INFORMAÇÕES DA PISTA

Pista 14 Tamanho da pista 6831 ft Largura da pista 98 ft
Elevação da pista 0 ft Ranhura da pista 0 ft Proa da pista 0
Pista 32 Tamanho da pista 6831 ft Largura da pista 98 ft
Elevação da pista 0 ft Ranhura da pista 0 ft Proa da pista 0

 FREQUÊNCIAS DO AEROPORTO

Tipo RDO Nome RDO Frequência 131.75 MHZ

 AUXÍLIOS DE NAVEGAÇÃO PRÓXIMOS AO AEROPORTO

Tipo NDB Nome Lencois Frequência 235 KHZ